createdAt,value
2022-12-29T00:00:07.549Z,3.47
2022-12-29T00:02:34.562Z,3.30
2022-12-29T00:05:02.868Z,3.40
2022-12-29T00:07:29.757Z,2.83
2022-12-29T00:09:56.668Z,3.17
2022-12-29T00:12:23.510Z,3.33
2022-12-29T00:15:08.628Z,3.37
2022-12-29T00:17:35.537Z,2.93
2022-12-29T00:20:23.666Z,3.30
2022-12-29T00:23:09.067Z,3.53
2022-12-29T00:25:56.235Z,3.30
2022-12-29T00:28:41.468Z,4.60
2022-12-29T00:31:31.335Z,3.50
2022-12-29T00:34:17.745Z,5.47
2022-12-29T00:36:46.305Z,4.00
2022-12-29T00:39:37.945Z,3.43
2022-12-29T00:42:41.328Z,4.10
2022-12-29T00:45:09.035Z,4.47
2022-12-29T00:47:35.884Z,4.23
2022-12-29T00:50:02.911Z,5.07
2022-12-29T00:52:32.018Z,4.30
2022-12-29T00:54:58.912Z,5.13
2022-12-29T00:57:25.800Z,4.87
2022-12-29T00:59:52.662Z,4.53
2022-12-29T01:02:19.766Z,4.77
2022-12-29T01:04:46.772Z,4.23
2022-12-29T01:07:13.686Z,4.87
2022-12-29T01:10:00.787Z,4.33
2022-12-29T01:12:42.598Z,4.43
2022-12-29T01:15:14.909Z,4.50
2022-12-29T01:17:42.001Z,4.77
2022-12-29T01:20:11.601Z,4.20
2022-12-29T01:22:38.911Z,4.10
2022-12-29T01:25:08.606Z,3.83
2022-12-29T01:27:35.619Z,3.57
2022-12-29T01:30:02.777Z,4.33
2022-12-29T01:32:29.623Z,3.80
2022-12-29T01:34:56.521Z,3.30
2022-12-29T01:37:23.459Z,3.60
2022-12-29T01:39:50.342Z,3.00
2022-12-29T01:42:25.183Z,4.10
2022-12-29T01:44:56.353Z,4.27
2022-12-29T01:47:39.410Z,4.00
2022-12-29T01:50:12.318Z,3.93
2022-12-29T01:52:50.114Z,4.23
2022-12-29T01:55:18.064Z,4.70
2022-12-29T01:57:51.602Z,3.57
2022-12-29T02:00:18.710Z,3.47
2022-12-29T02:02:51.592Z,3.67
2022-12-29T02:05:28.441Z,3.37
2022-12-29T02:07:55.541Z,3.63
2022-12-29T02:10:26.675Z,3.90
2022-12-29T02:12:55.212Z,4.03
2022-12-29T02:15:42.111Z,3.43
2022-12-29T02:18:26.281Z,3.67
2022-12-29T02:21:48.003Z,3.10
2022-12-29T02:25:06.445Z,3.80
2022-12-29T02:27:56.364Z,4.13
2022-12-29T02:30:43.426Z,3.70
2022-12-29T02:33:28.434Z,3.03
2022-12-29T02:36:06.411Z,3.70
2022-12-29T02:38:57.164Z,3.37
2022-12-29T02:41:32.514Z,3.60
2022-12-29T02:44:13.286Z,3.40
2022-12-29T02:46:50.521Z,3.47
2022-12-29T02:49:27.161Z,2.90
2022-12-29T02:52:03.747Z,3.63
2022-12-29T02:54:43.946Z,3.10
2022-12-29T02:57:29.932Z,3.27
2022-12-29T03:00:02.570Z,3.47
2022-12-29T03:03:09.809Z,3.00
2022-12-29T03:05:56.452Z,2.80
2022-12-29T03:08:36.182Z,4.20
2022-12-29T03:11:06.538Z,3.20
2022-12-29T03:14:04.077Z,2.80
2022-12-29T03:16:45.417Z,3.47
2022-12-29T03:19:21.740Z,2.67
2022-12-29T03:22:15.143Z,3.10
2022-12-29T03:24:48.841Z,2.60
2022-12-29T03:27:24.227Z,1.80
2022-12-29T03:29:57.800Z,2.47
2022-12-29T03:32:32.094Z,1.80
2022-12-29T03:35:02.577Z,1.70
2022-12-29T03:37:37.855Z,1.60
2022-12-29T03:40:06.437Z,1.50
2022-12-29T03:42:37.586Z,2.53
2022-12-29T03:45:07.735Z,1.50
2022-12-29T03:47:34.692Z,1.70
2022-12-29T03:50:03.206Z,1.70
2022-12-29T03:52:30.119Z,1.60
2022-12-29T03:54:57.077Z,1.80
2022-12-29T03:57:24.112Z,1.70
2022-12-29T03:59:50.988Z,1.30
2022-12-29T04:02:18.159Z,1.87
2022-12-29T04:04:45.518Z,1.73
2022-12-29T04:07:13.834Z,1.90
2022-12-29T04:09:40.761Z,2.07
2022-12-29T04:12:07.702Z,1.90
2022-12-29T04:14:34.685Z,2.13
2022-12-29T04:17:01.606Z,2.17
2022-12-29T04:19:28.499Z,2.23
2022-12-29T04:21:55.347Z,2.13
2022-12-29T04:24:23.548Z,2.20
2022-12-29T04:26:50.752Z,2.00
2022-12-29T04:29:17.642Z,2.13
2022-12-29T04:31:44.556Z,2.30
2022-12-29T04:34:11.641Z,2.37
2022-12-29T04:36:40.539Z,2.90
2022-12-29T04:39:08.603Z,2.10
2022-12-29T04:41:36.861Z,2.10
2022-12-29T04:44:04.253Z,3.40
2022-12-29T04:46:31.158Z,2.30
2022-12-29T04:48:58.081Z,2.10
2022-12-29T04:51:25.312Z,2.07
2022-12-29T04:53:52.154Z,2.47
2022-12-29T04:56:19.016Z,3.27
2022-12-29T04:58:47.248Z,2.23
2022-12-29T05:01:14.591Z,3.30
2022-12-29T05:03:41.510Z,2.20
2022-12-29T05:06:08.942Z,2.13
2022-12-29T05:08:35.882Z,1.63
2022-12-29T05:11:02.755Z,2.10
2022-12-29T05:13:29.677Z,2.63
2022-12-29T05:15:57.942Z,1.93
2022-12-29T05:18:24.924Z,1.70
2022-12-29T05:20:52.036Z,2.17
2022-12-29T05:23:18.924Z,2.20
2022-12-29T05:25:48.309Z,2.13
2022-12-29T05:28:15.624Z,1.63
2022-12-29T05:30:42.607Z,0.80
2022-12-29T05:33:12.487Z,1.87
2022-12-29T05:35:39.441Z,0.80
2022-12-29T05:38:06.376Z,1.20
2022-12-29T05:40:33.310Z,0.90
2022-12-29T05:43:00.253Z,0.63
2022-12-29T05:45:27.176Z,1.33
2022-12-29T05:47:54.122Z,1.10
2022-12-29T05:50:22.351Z,2.30
2022-12-29T05:52:49.419Z,1.60
2022-12-29T05:55:16.541Z,1.77
2022-12-29T05:57:43.512Z,2.03
2022-12-29T06:00:12.383Z,2.40
2022-12-29T06:02:39.357Z,2.33
2022-12-29T06:05:07.218Z,2.07
2022-12-29T06:07:35.385Z,2.47
2022-12-29T06:10:02.302Z,2.63
2022-12-29T06:12:30.333Z,3.27
2022-12-29T06:14:57.398Z,1.83
2022-12-29T06:17:24.399Z,2.33
2022-12-29T06:19:51.244Z,1.93
2022-12-29T06:22:18.183Z,1.67
2022-12-29T06:24:46.437Z,2.13
2022-12-29T06:27:14.722Z,1.53
2022-12-29T06:29:41.850Z,1.83
2022-12-29T06:32:08.816Z,2.27
2022-12-29T06:34:35.820Z,1.53
2022-12-29T06:37:03.280Z,1.50
2022-12-29T06:39:30.203Z,3.13
2022-12-29T06:41:58.432Z,1.57
2022-12-29T06:44:25.327Z,2.30
2022-12-29T06:46:52.305Z,2.20
2022-12-29T06:49:19.393Z,1.43
2022-12-29T06:51:46.476Z,1.93
2022-12-29T06:54:13.972Z,1.50
2022-12-29T06:56:41.098Z,2.73
2022-12-29T06:59:10.601Z,3.40
2022-12-29T07:01:37.550Z,2.53
2022-12-29T07:04:05.119Z,3.97
2022-12-29T07:06:32.109Z,1.50
2022-12-29T07:08:59.336Z,2.67
2022-12-29T07:11:26.678Z,1.83
2022-12-29T07:13:53.625Z,1.70
2022-12-29T07:16:21.880Z,1.93
2022-12-29T07:18:48.845Z,1.90
2022-12-29T07:21:15.970Z,1.90
2022-12-29T07:23:43.030Z,2.00
2022-12-29T07:26:14.357Z,1.93
2022-12-29T07:28:42.676Z,4.43
2022-12-29T07:31:17.446Z,2.07
2022-12-29T07:33:46.570Z,3.47
2022-12-29T07:36:14.994Z,2.73
2022-12-29T07:38:42.517Z,3.40
2022-12-29T07:41:09.830Z,2.67
2022-12-29T07:43:37.137Z,3.30
2022-12-29T07:46:05.730Z,1.67
2022-12-29T07:48:34.726Z,3.73
2022-12-29T07:51:03.071Z,2.00
2022-12-29T07:53:29.915Z,1.80
2022-12-29T07:55:57.250Z,1.50
2022-12-29T07:58:24.313Z,1.97
2022-12-29T08:00:54.894Z,1.40
2022-12-29T08:03:22.392Z,1.63
2022-12-29T08:05:49.574Z,2.17
2022-12-29T08:08:17.813Z,2.97
2022-12-29T08:10:44.918Z,1.07
2022-12-29T08:13:13.212Z,1.77
2022-12-29T08:15:40.250Z,2.27
2022-12-29T08:18:07.247Z,3.67
2022-12-29T08:20:34.186Z,8.10
2022-12-29T08:23:01.023Z,3.23
2022-12-29T08:25:29.217Z,2.43
2022-12-29T08:27:56.183Z,3.30
2022-12-29T08:30:23.070Z,6.63
2022-12-29T08:32:50.179Z,3.97
2022-12-29T08:35:17.181Z,3.37
2022-12-29T08:37:44.129Z,4.20
2022-12-29T08:40:11.880Z,1.83
2022-12-29T08:42:40.167Z,6.30
2022-12-29T08:45:09.577Z,3.27
2022-12-29T08:47:36.748Z,4.57
2022-12-29T08:50:04.573Z,4.43
2022-12-29T08:52:31.502Z,3.43
2022-12-29T08:54:58.507Z,4.70
2022-12-29T08:57:25.771Z,2.73
2022-12-29T08:59:54.027Z,3.57
2022-12-29T09:02:24.719Z,4.93
2022-12-29T09:04:52.595Z,3.27
2022-12-29T09:07:19.638Z,4.13
2022-12-29T09:09:46.542Z,4.93
2022-12-29T09:12:13.480Z,3.47
2022-12-29T09:14:40.391Z,5.00
2022-12-29T09:17:27.245Z,2.67
2022-12-29T09:19:54.490Z,2.30
2022-12-29T09:22:21.387Z,4.17
2022-12-29T09:24:48.264Z,5.30
2022-12-29T09:27:15.285Z,4.97
2022-12-29T09:29:42.231Z,3.77
2022-12-29T09:32:13.901Z,5.13
2022-12-29T09:34:44.062Z,2.57
2022-12-29T09:37:10.972Z,3.10
2022-12-29T09:39:37.889Z,4.60
2022-12-29T09:42:14.229Z,5.60
2022-12-29T09:44:55.987Z,5.73
2022-12-29T09:47:26.473Z,3.50
2022-12-29T09:49:59.962Z,4.87
2022-12-29T09:52:32.652Z,5.07
2022-12-29T09:55:10.395Z,5.23
2022-12-29T09:57:48.012Z,4.03
2022-12-29T10:00:19.345Z,4.23
2022-12-29T10:02:53.366Z,5.73
2022-12-29T10:05:36.197Z,6.63
2022-12-29T10:08:33.908Z,2.73
2022-12-29T10:11:15.182Z,4.60
2022-12-29T10:14:13.884Z,2.27
2022-12-29T10:16:56.097Z,3.43
2022-12-29T10:19:50.354Z,2.50
2022-12-29T10:22:38.755Z,3.70
2022-12-29T10:25:17.386Z,3.70
2022-12-29T10:27:48.864Z,3.17
2022-12-29T10:30:17.047Z,3.40
2022-12-29T10:32:51.359Z,3.23
2022-12-29T10:35:22.989Z,3.07
2022-12-29T10:38:00.376Z,2.83
2022-12-29T10:40:33.903Z,2.30
2022-12-29T10:43:06.793Z,1.63
2022-12-29T10:45:35.051Z,1.23
2022-12-29T10:48:07.145Z,1.10
2022-12-29T10:50:35.632Z,1.90
2022-12-29T10:53:06.996Z,2.63
2022-12-29T10:55:38.962Z,1.67
2022-12-29T10:58:13.204Z,2.73
2022-12-29T11:00:40.129Z,2.07
2022-12-29T11:03:49.381Z,1.93
2022-12-29T11:06:26.869Z,4.17
2022-12-29T11:08:59.041Z,2.13
2022-12-29T11:11:33.022Z,2.50
2022-12-29T11:14:13.889Z,4.17
2022-12-29T11:16:42.684Z,3.33
2022-12-29T11:19:23.437Z,6.13
2022-12-29T11:21:52.635Z,5.33
2022-12-29T11:24:24.619Z,5.90
2022-12-29T11:26:54.554Z,10.13
2022-12-29T11:29:26.121Z,6.70
2022-12-29T11:31:56.100Z,3.73
2022-12-29T11:34:26.535Z,3.10
2022-12-29T11:37:04.070Z,3.33
2022-12-29T11:39:40.998Z,7.47
2022-12-29T11:42:16.127Z,5.70
2022-12-29T11:44:46.987Z,4.23
2022-12-29T11:47:28.869Z,6.33
2022-12-29T11:50:02.484Z,4.70
2022-12-29T11:52:36.482Z,5.70
2022-12-29T11:55:07.643Z,4.07
2022-12-29T11:57:36.858Z,6.90
2022-12-29T12:00:16.718Z,3.63
2022-12-29T12:02:54.211Z,4.30
2022-12-29T12:05:28.617Z,4.53
2022-12-29T12:08:08.304Z,4.93
2022-12-29T12:10:45.705Z,4.53
2022-12-29T12:13:32.493Z,3.63
2022-12-29T12:16:09.578Z,6.73
2022-12-29T12:18:46.869Z,5.40
2022-12-29T12:21:31.981Z,3.87
2022-12-29T12:24:32.035Z,4.67
2022-12-29T12:27:04.580Z,3.13
2022-12-29T12:29:42.128Z,4.83
2022-12-29T12:32:18.759Z,4.33
2022-12-29T12:34:49.041Z,4.93
2022-12-29T12:37:47.599Z,4.40
2022-12-29T12:40:45.331Z,4.00
2022-12-29T12:43:42.341Z,3.73
2022-12-29T12:46:31.203Z,4.30
2022-12-29T12:49:29.088Z,3.67
2022-12-29T12:52:06.912Z,4.20
2022-12-29T12:55:05.560Z,4.07
2022-12-29T12:57:54.619Z,4.17
2022-12-29T13:00:24.289Z,6.47
2022-12-29T13:03:09.327Z,3.93
2022-12-29T13:06:03.071Z,5.07
2022-12-29T13:09:13.665Z,3.40
2022-12-29T13:12:04.117Z,4.17
2022-12-29T13:14:51.808Z,2.87
2022-12-29T13:17:28.460Z,2.60
2022-12-29T13:20:10.977Z,2.53
2022-12-29T13:22:50.551Z,3.27
2022-12-29T13:25:33.514Z,4.00
2022-12-29T13:28:11.438Z,3.63
2022-12-29T13:30:54.500Z,3.60
2022-12-29T13:33:31.269Z,1.93
2022-12-29T13:36:06.180Z,2.33
2022-12-29T13:38:39.098Z,2.93
2022-12-29T13:41:10.687Z,4.23
2022-12-29T13:43:42.930Z,1.70
2022-12-29T13:46:28.235Z,2.40
2022-12-29T13:49:03.052Z,4.13
2022-12-29T13:51:31.005Z,3.27
2022-12-29T13:54:18.439Z,2.67
2022-12-29T13:56:55.687Z,4.27
2022-12-29T13:59:41.545Z,3.13
2022-12-29T14:02:28.611Z,3.80
2022-12-29T14:05:05.935Z,3.07
2022-12-29T14:07:40.248Z,6.87
2022-12-29T14:10:28.332Z,3.80
2022-12-29T14:13:05.381Z,4.73
2022-12-29T14:15:32.532Z,5.17
2022-12-29T14:18:19.431Z,3.07
2022-12-29T14:20:57.723Z,2.60
2022-12-29T14:23:38.901Z,5.73
2022-12-29T14:26:17.577Z,6.73
2022-12-29T14:28:47.334Z,6.40
2022-12-29T14:31:41.523Z,3.63
2022-12-29T14:34:48.808Z,3.03
2022-12-29T14:37:27.550Z,4.40
2022-12-29T14:40:07.656Z,3.33
2022-12-29T14:42:34.934Z,3.30
2022-12-29T14:45:09.483Z,2.80
2022-12-29T14:47:41.157Z,5.43
2022-12-29T14:50:16.120Z,4.90
2022-12-29T14:52:49.560Z,4.10
2022-12-29T14:55:40.506Z,4.90
2022-12-29T14:58:18.218Z,5.77
2022-12-29T15:00:46.611Z,4.17
2022-12-29T15:03:23.056Z,6.93
2022-12-29T15:05:55.367Z,5.10
2022-12-29T15:08:27.234Z,5.63
2022-12-29T15:11:01.574Z,3.70
2022-12-29T15:13:37.294Z,4.70
2022-12-29T15:16:05.230Z,5.00
2022-12-29T15:18:34.592Z,3.87
2022-12-29T15:21:06.049Z,4.07
2022-12-29T15:23:35.954Z,4.40
2022-12-29T15:26:06.820Z,5.57
2022-12-29T15:28:40.786Z,4.77
2022-12-29T15:31:14.437Z,4.97
2022-12-29T15:33:45.349Z,6.50
2022-12-29T15:36:19.908Z,8.17
2022-12-29T15:38:47.763Z,5.77
2022-12-29T15:41:54.667Z,7.53
2022-12-29T15:44:26.844Z,8.20
2022-12-29T15:46:53.849Z,5.47
2022-12-29T15:49:24.099Z,8.00
2022-12-29T15:51:55.718Z,8.77
2022-12-29T15:54:27.252Z,4.60
2022-12-29T15:56:54.503Z,6.73
2022-12-29T15:59:30.219Z,6.87
2022-12-29T16:02:00.087Z,5.83
2022-12-29T16:04:36.131Z,5.30
2022-12-29T16:07:32.194Z,2.40
2022-12-29T16:10:04.784Z,5.27
2022-12-29T16:12:36.418Z,8.20
2022-12-29T16:15:07.424Z,4.23
2022-12-29T16:17:46.988Z,10.50
2022-12-29T16:20:19.827Z,6.73
2022-12-29T16:22:53.682Z,4.37
2022-12-29T16:25:26.265Z,4.07
2022-12-29T16:27:54.075Z,3.60
2022-12-29T16:30:32.858Z,5.80
2022-12-29T16:33:03.421Z,5.53
2022-12-29T16:35:40.475Z,8.20
2022-12-29T16:38:16.407Z,4.80
2022-12-29T16:40:53.188Z,5.87
2022-12-29T16:43:23.998Z,4.23
2022-12-29T16:46:26.270Z,5.87
2022-12-29T16:48:55.835Z,7.00
2022-12-29T16:51:32.363Z,6.13
2022-12-29T16:54:01.758Z,6.60
2022-12-29T16:56:32.893Z,6.30
2022-12-29T16:59:08.552Z,9.10
2022-12-29T17:01:38.639Z,6.53
2022-12-29T17:04:09.797Z,9.23
2022-12-29T17:06:37.139Z,5.80
2022-12-29T17:09:20.261Z,4.80
2022-12-29T17:12:05.419Z,8.03
2022-12-29T17:14:43.134Z,8.37
2022-12-29T17:17:18.908Z,5.43
2022-12-29T17:19:51.644Z,6.27
2022-12-29T17:22:24.943Z,4.70
2022-12-29T17:24:54.448Z,7.27
2022-12-29T17:27:29.768Z,5.40
2022-12-29T17:30:02.086Z,7.27
2022-12-29T17:32:30.123Z,5.67
2022-12-29T17:34:56.987Z,6.70
2022-12-29T17:37:36.966Z,8.00
2022-12-29T17:40:10.584Z,9.23
2022-12-29T17:42:43.544Z,7.03
2022-12-29T17:45:16.766Z,9.20
2022-12-29T17:47:44.507Z,7.40
2022-12-29T17:50:15.500Z,8.73
2022-12-29T17:52:46.467Z,8.13
2022-12-29T17:55:19.220Z,9.40
2022-12-29T17:57:46.636Z,4.37
2022-12-29T18:00:18.329Z,8.03
2022-12-29T18:02:45.600Z,8.40
2022-12-29T18:05:19.982Z,6.77
2022-12-29T18:07:47.317Z,8.93
2022-12-29T18:10:15.892Z,8.83
2022-12-29T18:12:46.114Z,5.93
2022-12-29T18:15:21.642Z,9.60
2022-12-29T18:17:49.221Z,7.03
2022-12-29T18:20:16.813Z,7.47
2022-12-29T18:22:43.723Z,6.63
2022-12-29T18:25:25.048Z,5.23
2022-12-29T18:27:52.042Z,7.07
2022-12-29T18:30:19.239Z,6.13
2022-12-29T18:32:46.267Z,5.43
2022-12-29T18:35:19.734Z,6.77
2022-12-29T18:37:46.732Z,4.87
2022-12-29T18:40:14.085Z,8.33
2022-12-29T18:42:42.334Z,4.17
2022-12-29T18:45:19.585Z,4.63
2022-12-29T18:47:46.631Z,3.20
2022-12-29T18:50:14.359Z,5.57
2022-12-29T18:52:41.411Z,2.87
2022-12-29T18:55:14.723Z,2.50
2022-12-29T18:57:43.445Z,3.17
2022-12-29T19:00:13.545Z,4.40
2022-12-29T19:02:41.351Z,5.03
2022-12-29T19:05:20.370Z,3.57
2022-12-29T19:07:47.447Z,3.43
2022-12-29T19:10:14.366Z,4.50
2022-12-29T19:12:42.617Z,3.40
2022-12-29T19:15:21.163Z,4.87
2022-12-29T19:18:08.313Z,3.40
2022-12-29T19:20:38.043Z,4.13
2022-12-29T19:23:08.308Z,3.17
2022-12-29T19:25:35.766Z,5.07
2022-12-29T19:28:07.420Z,4.93
2022-12-29T19:30:35.265Z,4.47
2022-12-29T19:33:09.740Z,4.63
2022-12-29T19:35:37.551Z,3.07
2022-12-29T19:38:05.574Z,4.80
2022-12-29T19:40:32.972Z,7.17
2022-12-29T19:43:00.242Z,6.73
2022-12-29T19:45:28.532Z,10.20
2022-12-29T19:47:55.453Z,3.70
2022-12-29T19:50:22.464Z,2.97
2022-12-29T19:52:49.665Z,2.33
2022-12-29T19:55:17.361Z,2.00
2022-12-29T19:57:44.614Z,2.27
2022-12-29T20:00:13.755Z,2.63
2022-12-29T20:02:43.426Z,2.83
2022-12-29T20:05:11.244Z,3.03
2022-12-29T20:07:39.618Z,2.97
2022-12-29T20:10:08.581Z,4.77
2022-12-29T20:12:37.715Z,5.90
2022-12-29T20:15:07.583Z,4.33
2022-12-29T20:18:11.764Z,4.17
2022-12-29T20:20:24.318Z,5.07
2022-12-29T20:22:51.219Z,5.87
2022-12-29T20:25:44.309Z,3.00
2022-12-29T20:28:05.229Z,3.27
2022-12-29T20:30:32.113Z,2.57
2022-12-29T20:33:04.661Z,4.27
2022-12-29T20:35:36.395Z,6.17
2022-12-29T20:38:04.071Z,4.80
2022-12-29T20:40:31.886Z,5.30
2022-12-29T20:42:59.113Z,4.63
2022-12-29T20:45:26.387Z,5.77
2022-12-29T20:47:54.583Z,5.27
2022-12-29T20:50:21.569Z,7.53
2022-12-29T20:52:49.792Z,3.90
2022-12-29T20:55:16.911Z,4.30
2022-12-29T20:58:21.846Z,5.50
2022-12-29T21:00:32.583Z,4.47
2022-12-29T21:03:00.744Z,4.73
2022-12-29T21:05:28.898Z,7.67
2022-12-29T21:07:59.439Z,6.67
2022-12-29T21:10:26.628Z,5.67
2022-12-29T21:12:53.752Z,6.93
2022-12-29T21:15:20.942Z,5.63
2022-12-29T21:17:47.853Z,6.07
2022-12-29T21:20:29.564Z,6.70
2022-12-29T21:22:59.954Z,7.87
2022-12-29T21:25:27.391Z,7.30
2022-12-29T21:27:54.236Z,9.50
2022-12-29T21:30:21.214Z,8.20
2022-12-29T21:32:48.223Z,3.60
2022-12-29T21:35:15.140Z,8.37
2022-12-29T21:37:42.061Z,5.57
2022-12-29T21:40:11.546Z,4.33
2022-12-29T21:42:38.480Z,11.77
2022-12-29T21:45:27.401Z,7.07
2022-12-29T21:48:16.825Z,6.10
2022-12-29T21:51:05.537Z,5.70
2022-12-29T21:53:38.871Z,3.90
2022-12-29T21:56:11.135Z,4.63
2022-12-29T21:58:59.126Z,5.47
2022-12-29T22:01:46.568Z,5.47
2022-12-29T22:04:34.109Z,8.97
2022-12-29T22:07:20.211Z,6.73
2022-12-29T22:10:05.777Z,6.23
2022-12-29T22:12:53.604Z,9.33
2022-12-29T22:15:21.419Z,6.97
2022-12-29T22:17:50.929Z,6.53
2022-12-29T22:20:19.974Z,7.50
2022-12-29T22:22:47.438Z,5.63
2022-12-29T22:25:15.065Z,9.43
2022-12-29T22:27:43.964Z,8.07
2022-12-29T22:30:12.686Z,7.23
2022-12-29T22:32:39.800Z,9.23
2022-12-29T22:35:08.574Z,5.50
2022-12-29T22:37:37.134Z,5.47
2022-12-29T22:40:05.067Z,8.20
2022-12-29T22:42:32.319Z,5.60
2022-12-29T22:45:00.527Z,9.27
2022-12-29T22:47:27.480Z,7.80
2022-12-29T22:49:54.328Z,10.40
2022-12-29T22:52:21.214Z,11.47
2022-12-29T22:54:48.080Z,6.27
2022-12-29T22:57:15.003Z,7.77
2022-12-29T22:59:42.025Z,7.97
2022-12-29T23:02:10.325Z,9.83
2022-12-29T23:07:24.173Z,11.37
2022-12-29T23:09:51.189Z,8.20
2022-12-29T23:12:18.093Z,7.40
2022-12-29T23:14:44.944Z,10.23
2022-12-29T23:17:13.129Z,9.03
2022-12-29T23:19:40.234Z,8.63
2022-12-29T23:22:07.226Z,5.30
2022-12-29T23:24:34.111Z,11.47
2022-12-29T23:27:01.103Z,7.23
2022-12-29T23:29:27.976Z,8.43
2022-12-29T23:31:54.848Z,9.13
2022-12-29T23:34:23.204Z,6.50
2022-12-29T23:36:50.921Z,12.80
2022-12-29T23:39:21.087Z,7.33
2022-12-29T23:41:47.986Z,9.60
2022-12-29T23:44:14.981Z,9.03
2022-12-29T23:46:42.332Z,9.60
2022-12-29T23:49:10.069Z,9.60
2022-12-29T23:51:38.629Z,11.40
2022-12-29T23:54:05.654Z,11.07
2022-12-29T23:56:32.932Z,9.73
2022-12-29T23:58:59.947Z,8.53
